createdAt,value
2023-02-14T00:01:15.533Z,4.50
2023-02-14T00:03:42.457Z,5.40
2023-02-14T00:06:14.018Z,4.50
2023-02-14T00:08:44.400Z,4.40
2023-02-14T00:11:14.143Z,6.20
2023-02-14T00:14:01.658Z,4.40
2023-02-14T00:16:28.810Z,6.60
2023-02-14T00:19:05.926Z,4.30
2023-02-14T00:21:36.244Z,4.30
2023-02-14T00:24:10.463Z,6.80
2023-02-14T00:26:38.763Z,4.30
2023-02-14T00:29:15.057Z,4.20
2023-02-14T00:31:43.744Z,4.20
2023-02-14T00:34:12.205Z,4.20
2023-02-14T00:36:39.346Z,4.20
2023-02-14T00:39:11.849Z,4.10
2023-02-14T00:41:40.366Z,4.10
2023-02-14T00:44:34.782Z,4.10
2023-02-14T00:47:27.920Z,4.10
2023-02-14T00:49:55.286Z,4.10
2023-02-14T00:52:22.183Z,4.00
2023-02-14T00:54:49.620Z,4.00
2023-02-14T00:57:16.575Z,4.00
2023-02-14T00:59:43.504Z,4.00
2023-02-14T01:02:10.571Z,3.90
2023-02-14T01:04:37.598Z,3.90
2023-02-14T01:07:04.588Z,3.90
2023-02-14T01:09:31.689Z,3.90
2023-02-14T01:12:02.481Z,3.90
2023-02-14T01:14:29.503Z,3.90
2023-02-14T01:16:56.465Z,3.90
2023-02-14T01:19:26.227Z,3.80
2023-02-14T01:21:53.195Z,5.50
2023-02-14T01:24:23.081Z,3.80
2023-02-14T01:26:50.172Z,4.20
2023-02-14T01:29:17.088Z,5.40
2023-02-14T01:31:45.087Z,3.70
2023-02-14T01:34:12.192Z,5.20
2023-02-14T01:36:40.144Z,3.70
2023-02-14T01:39:14.100Z,3.60
2023-02-14T01:41:44.631Z,3.60
2023-02-14T01:44:14.432Z,3.60
2023-02-14T01:46:44.435Z,3.60
2023-02-14T01:49:22.922Z,5.80
2023-02-14T01:52:16.875Z,3.60
2023-02-14T01:55:03.700Z,3.60
2023-02-14T01:57:44.165Z,3.50
2023-02-14T02:00:30.349Z,3.50
2023-02-14T02:02:59.861Z,3.50
2023-02-14T02:05:31.729Z,3.50
2023-02-14T02:08:01.638Z,4.90
2023-02-14T02:10:29.771Z,5.40
2023-02-14T02:13:03.238Z,3.50
2023-02-14T02:15:42.202Z,4.50
2023-02-14T02:18:35.415Z,5.20
2023-02-14T02:21:36.702Z,3.50
2023-02-14T02:24:24.606Z,3.50
2023-02-14T02:27:08.418Z,3.50
2023-02-14T02:30:11.216Z,3.50
2023-02-14T02:33:17.883Z,3.50
2023-02-14T02:36:38.666Z,3.50
2023-02-14T02:39:36.550Z,3.40
2023-02-14T02:42:17.291Z,3.40
2023-02-14T02:45:17.550Z,3.40
2023-02-14T02:48:10.733Z,3.30
2023-02-14T02:51:01.851Z,3.30
2023-02-14T02:53:48.111Z,3.20
2023-02-14T02:56:48.694Z,3.30
2023-02-14T02:59:45.193Z,3.80
2023-02-14T03:02:33.344Z,3.20
2023-02-14T03:05:05.620Z,3.20
2023-02-14T03:07:41.357Z,3.20
2023-02-14T03:10:21.382Z,4.30
2023-02-14T03:13:24.113Z,3.20
2023-02-14T03:16:20.545Z,3.20
2023-02-14T03:19:28.339Z,3.10
2023-02-14T03:22:26.380Z,3.10
2023-02-14T03:25:08.842Z,5.90
2023-02-14T03:27:45.842Z,3.70
2023-02-14T03:30:42.622Z,5.20
2023-02-14T03:33:44.848Z,1.80
2023-02-14T03:36:30.194Z,3.00
2023-02-14T03:39:28.419Z,4.50
2023-02-14T03:42:14.344Z,3.00
2023-02-14T03:44:47.420Z,4.50
2023-02-14T03:47:24.353Z,3.90
2023-02-14T03:49:59.747Z,5.10
2023-02-14T03:52:31.962Z,3.00
2023-02-14T03:55:05.191Z,3.10
2023-02-14T03:57:56.006Z,4.80
2023-02-14T04:00:23.502Z,2.90
2023-02-14T04:02:59.424Z,2.90
2023-02-14T04:05:28.735Z,4.20
2023-02-14T04:07:58.825Z,4.60
2023-02-14T04:10:26.897Z,2.80
2023-02-14T04:12:54.071Z,4.60
2023-02-14T04:15:21.335Z,3.00
2023-02-14T04:18:06.616Z,3.00
2023-02-14T04:20:34.493Z,3.00
2023-02-14T04:23:03.425Z,3.00
2023-02-14T04:25:31.551Z,3.30
2023-02-14T04:27:58.578Z,4.90
2023-02-14T04:30:25.627Z,3.00
2023-02-14T04:32:52.537Z,3.20
2023-02-14T04:35:19.731Z,3.00
2023-02-14T04:37:46.850Z,3.00
2023-02-14T04:40:17.273Z,3.10
2023-02-14T04:42:46.240Z,3.00
2023-02-14T04:45:14.607Z,3.00
2023-02-14T04:47:41.667Z,3.00
2023-02-14T04:50:09.489Z,3.10
2023-02-14T04:52:36.662Z,3.10
2023-02-14T04:55:05.603Z,3.10
2023-02-14T04:57:33.233Z,3.10
2023-02-14T05:00:00.234Z,3.10
2023-02-14T05:02:27.447Z,3.10
2023-02-14T05:04:54.379Z,3.20
2023-02-14T05:07:21.413Z,3.20
2023-02-14T05:09:48.392Z,3.20
2023-02-14T05:12:17.004Z,3.20
2023-02-14T05:14:47.174Z,3.20
2023-02-14T05:17:14.199Z,3.20
2023-02-14T05:19:41.153Z,4.90
2023-02-14T05:22:08.253Z,5.00
2023-02-14T05:24:35.216Z,3.20
2023-02-14T05:27:02.313Z,3.10
2023-02-14T05:29:29.504Z,3.10
2023-02-14T05:31:56.652Z,3.10
2023-02-14T05:34:23.694Z,3.20
2023-02-14T05:36:50.860Z,3.10
2023-02-14T05:39:18.010Z,4.70
2023-02-14T05:41:45.173Z,3.00
2023-02-14T05:44:12.831Z,3.00
2023-02-14T05:46:39.768Z,3.00
2023-02-14T05:49:06.767Z,2.90
2023-02-14T05:51:33.811Z,2.00
2023-02-14T05:54:01.335Z,2.90
2023-02-14T05:56:28.464Z,2.90
2023-02-14T05:58:55.555Z,2.80
2023-02-14T06:01:23.839Z,4.60
2023-02-14T06:03:50.759Z,2.80
2023-02-14T06:06:17.690Z,2.80
2023-02-14T06:08:44.663Z,2.80
2023-02-14T06:11:12.902Z,2.80
2023-02-14T06:13:41.453Z,2.80
2023-02-14T06:16:08.440Z,2.80
2023-02-14T06:18:35.757Z,2.70
2023-02-14T06:21:02.992Z,2.70
2023-02-14T06:23:30.259Z,2.70
2023-02-14T06:25:57.458Z,2.70
2023-02-14T06:28:24.398Z,2.70
2023-02-14T06:30:51.947Z,2.70
2023-02-14T06:33:18.973Z,2.70
2023-02-14T06:35:45.972Z,2.70
2023-02-14T06:38:13.355Z,2.70
2023-02-14T06:40:41.294Z,2.70
2023-02-14T06:43:10.933Z,3.50
2023-02-14T06:45:37.989Z,4.70
2023-02-14T06:48:06.662Z,4.30
2023-02-14T06:50:33.674Z,2.70
2023-02-14T06:53:00.636Z,3.30
2023-02-14T06:55:27.697Z,2.70
2023-02-14T06:57:54.634Z,2.70
2023-02-14T07:00:22.550Z,2.70
2023-02-14T07:02:49.569Z,2.70
2023-02-14T07:05:18.935Z,2.70
2023-02-14T07:07:46.727Z,3.70
2023-02-14T07:10:14.891Z,2.70
2023-02-14T07:12:42.080Z,4.00
2023-02-14T07:15:17.957Z,2.70
2023-02-14T07:17:45.127Z,1.80
2023-02-14T07:20:13.464Z,4.80
2023-02-14T07:22:40.446Z,2.80
2023-02-14T07:25:08.290Z,2.90
2023-02-14T07:27:35.325Z,2.70
2023-02-14T07:30:04.648Z,2.90
2023-02-14T07:32:32.146Z,2.90
2023-02-14T07:34:59.050Z,3.10
2023-02-14T07:37:26.254Z,3.10
2023-02-14T07:39:53.249Z,3.00
2023-02-14T07:42:20.958Z,3.10
2023-02-14T07:44:48.639Z,3.10
2023-02-14T07:47:15.597Z,3.20
2023-02-14T07:49:42.573Z,5.10
2023-02-14T07:52:10.733Z,3.30
2023-02-14T07:54:38.815Z,3.30
2023-02-14T07:57:06.190Z,3.30
2023-02-14T07:59:33.239Z,3.40
2023-02-14T08:02:00.533Z,3.50
2023-02-14T08:04:27.718Z,3.60
2023-02-14T08:06:55.234Z,5.00
2023-02-14T08:09:25.548Z,3.70
2023-02-14T08:12:14.269Z,3.70
2023-02-14T08:14:42.763Z,3.80
2023-02-14T08:17:13.335Z,4.00
2023-02-14T08:19:40.970Z,4.10
2023-02-14T08:22:08.569Z,4.20
2023-02-14T08:24:35.585Z,4.40
2023-02-14T08:27:02.967Z,4.60
2023-02-14T08:29:31.394Z,4.70
2023-02-14T08:32:00.323Z,4.90
2023-02-14T08:34:27.466Z,5.00
2023-02-14T08:36:55.087Z,5.20
2023-02-14T08:39:22.265Z,6.10
2023-02-14T08:41:49.378Z,6.60
2023-02-14T08:44:16.520Z,5.70
2023-02-14T08:46:43.793Z,5.90
2023-02-14T08:49:13.716Z,6.10
2023-02-14T08:51:40.645Z,7.20
2023-02-14T08:54:07.648Z,6.50
2023-02-14T08:56:35.404Z,6.70
2023-02-14T08:59:02.410Z,6.80
2023-02-14T09:01:29.739Z,7.00
2023-02-14T09:03:58.098Z,7.20
2023-02-14T09:06:25.418Z,7.90
2023-02-14T09:08:55.015Z,7.60
2023-02-14T09:11:25.311Z,7.80
2023-02-14T09:13:53.619Z,8.00
2023-02-14T09:16:22.799Z,8.10
2023-02-14T09:18:51.939Z,8.30
2023-02-14T09:21:26.126Z,8.50
2023-02-14T09:23:54.178Z,8.70
2023-02-14T09:26:22.194Z,8.80
2023-02-14T09:28:49.258Z,10.20
2023-02-14T09:31:20.800Z,9.20
2023-02-14T09:33:49.916Z,9.30
2023-02-14T09:36:36.057Z,10.70
2023-02-14T09:39:03.563Z,9.70
2023-02-14T09:41:30.853Z,10.40
2023-02-14T09:44:16.717Z,10.00
2023-02-14T09:46:54.694Z,10.10
2023-02-14T09:49:37.882Z,10.30
2023-02-14T09:52:11.526Z,10.50
2023-02-14T09:54:44.390Z,10.60
2023-02-14T09:57:45.202Z,10.70
2023-02-14T10:00:42.585Z,10.90
2023-02-14T10:03:50.006Z,11.10
2023-02-14T10:06:41.708Z,11.20
2023-02-14T10:09:30.411Z,11.50
2023-02-14T10:12:01.690Z,11.60
2023-02-14T10:14:40.834Z,12.40
2023-02-14T10:17:40.901Z,11.70
2023-02-14T10:20:32.724Z,11.90
2023-02-14T10:23:35.984Z,13.30
2023-02-14T10:26:13.336Z,12.30
2023-02-14T10:28:49.771Z,12.50
2023-02-14T10:31:55.515Z,12.80
2023-02-14T10:34:45.947Z,12.90
2023-02-14T10:37:28.128Z,13.10
2023-02-14T10:40:31.749Z,13.30
2023-02-14T10:43:32.642Z,13.50
2023-02-14T10:46:16.507Z,13.60
2023-02-14T10:49:32.996Z,14.20
2023-02-14T10:52:45.097Z,14.00
2023-02-14T10:55:37.418Z,14.20
2023-02-14T10:58:11.976Z,14.40
2023-02-14T11:01:14.116Z,14.60
2023-02-14T11:03:53.236Z,14.70
2023-02-14T11:06:20.433Z,14.80
2023-02-14T11:08:47.501Z,15.00
2023-02-14T11:11:33.683Z,15.10
2023-02-14T11:14:30.484Z,15.30
2023-02-14T11:17:00.377Z,15.40
2023-02-14T11:19:37.329Z,15.50
2023-02-14T11:22:05.074Z,15.70
2023-02-14T11:24:38.332Z,15.80
2023-02-14T11:27:13.994Z,15.90
2023-02-14T11:29:53.016Z,16.00
2023-02-14T11:32:30.256Z,16.10
2023-02-14T11:35:08.665Z,16.30
2023-02-14T11:37:49.769Z,16.40
2023-02-14T11:40:39.677Z,16.50
2023-02-14T11:43:15.282Z,16.60
2023-02-14T11:45:48.957Z,16.60
2023-02-14T11:48:37.595Z,16.70
2023-02-14T11:51:10.975Z,16.70
2023-02-14T11:53:53.809Z,16.80
2023-02-14T11:56:23.059Z,16.90
2023-02-14T11:59:02.019Z,17.00
2023-02-14T12:01:36.239Z,17.00
2023-02-14T12:04:19.210Z,17.80
2023-02-14T12:06:46.514Z,17.20
2023-02-14T12:09:22.240Z,17.20
2023-02-14T12:12:00.403Z,17.30
2023-02-14T12:14:34.715Z,17.40
2023-02-14T12:17:35.727Z,17.50
2023-02-14T12:20:16.557Z,17.50
2023-02-14T12:23:12.394Z,17.60
2023-02-14T12:26:02.598Z,17.40
2023-02-14T12:28:46.701Z,17.70
2023-02-14T12:31:20.916Z,17.80
2023-02-14T12:33:50.211Z,17.90
2023-02-14T12:37:04.508Z,18.00
2023-02-14T12:39:59.191Z,18.10
2023-02-14T12:42:50.417Z,18.20
2023-02-14T12:45:52.633Z,18.20
2023-02-14T12:48:38.749Z,18.40
2023-02-14T12:51:23.962Z,18.50
2023-02-14T12:54:26.556Z,18.50
2023-02-14T12:57:17.734Z,18.60
2023-02-14T13:00:04.309Z,18.70
2023-02-14T13:03:33.671Z,18.80
2023-02-14T13:06:34.496Z,18.80
2023-02-14T13:09:04.459Z,19.00
2023-02-14T13:12:13.048Z,19.00
2023-02-14T13:15:06.897Z,19.10
2023-02-14T13:18:10.688Z,19.20
2023-02-14T13:20:57.576Z,19.20
2023-02-14T13:23:41.525Z,19.20
2023-02-14T13:26:37.923Z,19.20
2023-02-14T13:29:14.200Z,19.20
2023-02-14T13:31:42.196Z,19.30
2023-02-14T13:34:41.855Z,19.30
2023-02-14T13:37:16.022Z,19.30
2023-02-14T13:39:55.406Z,19.40
2023-02-14T13:42:46.984Z,19.40
2023-02-14T13:45:35.182Z,19.50
2023-02-14T13:48:25.951Z,19.50
2023-02-14T13:51:06.986Z,19.40
2023-02-14T13:53:47.584Z,19.40
2023-02-14T13:56:17.492Z,19.40
2023-02-14T13:59:01.425Z,19.40
2023-02-14T14:01:42.357Z,19.30
2023-02-14T14:04:33.265Z,19.20
2023-02-14T14:07:03.398Z,19.20
2023-02-14T14:09:42.626Z,19.10
2023-02-14T14:12:43.704Z,19.10
2023-02-14T14:15:16.035Z,19.10
2023-02-14T14:17:50.220Z,19.00
2023-02-14T14:20:20.359Z,19.00
2023-02-14T14:23:01.420Z,18.90
2023-02-14T14:25:41.957Z,18.90
2023-02-14T14:28:12.800Z,18.90
2023-02-14T14:30:44.900Z,19.00
2023-02-14T14:33:27.783Z,18.90
2023-02-14T14:36:13.465Z,18.90
2023-02-14T14:38:52.681Z,18.90
2023-02-14T14:41:28.209Z,18.90
2023-02-14T14:43:55.663Z,18.90
2023-02-14T14:46:23.917Z,18.80
2023-02-14T14:48:55.370Z,18.80
2023-02-14T14:51:34.762Z,18.70
2023-02-14T14:54:12.394Z,18.70
2023-02-14T14:56:53.338Z,18.70
2023-02-14T14:59:35.463Z,18.60
2023-02-14T15:02:20.308Z,18.70
2023-02-14T15:04:47.507Z,18.60
2023-02-14T15:07:31.321Z,18.60
2023-02-14T15:09:58.358Z,18.50
2023-02-14T15:12:45.691Z,18.50
2023-02-14T15:15:17.741Z,18.40
2023-02-14T15:17:46.832Z,18.40
2023-02-14T15:20:23.786Z,18.30
2023-02-14T15:22:53.275Z,18.20
2023-02-14T15:25:31.739Z,18.20
2023-02-14T15:27:59.347Z,18.20
2023-02-14T15:30:34.742Z,18.10
2023-02-14T15:33:07.649Z,18.20
2023-02-14T15:35:42.392Z,18.10
2023-02-14T15:38:13.909Z,18.10
2023-02-14T15:40:44.260Z,18.10
2023-02-14T15:43:22.988Z,18.10
2023-02-14T15:46:00.746Z,18.00
2023-02-14T15:48:33.423Z,18.00
2023-02-14T15:51:04.923Z,18.00
2023-02-14T15:53:43.773Z,17.90
2023-02-14T15:56:33.580Z,17.80
2023-02-14T15:59:04.401Z,17.80
2023-02-14T16:01:39.056Z,17.70
2023-02-14T16:04:08.586Z,17.70
2023-02-14T16:06:44.581Z,17.60
2023-02-14T16:09:30.433Z,17.50
2023-02-14T16:11:57.683Z,17.40
2023-02-14T16:14:32.204Z,17.40
2023-02-14T16:17:20.533Z,17.20
2023-02-14T16:19:48.199Z,17.10
2023-02-14T16:22:32.258Z,17.10
2023-02-14T16:24:59.736Z,16.90
2023-02-14T16:27:27.015Z,16.80
2023-02-14T16:29:54.056Z,16.70
2023-02-14T16:32:24.200Z,16.70
2023-02-14T16:34:51.747Z,16.40
2023-02-14T16:37:30.829Z,16.20
2023-02-14T16:40:01.674Z,15.90
2023-02-14T16:42:29.526Z,15.70
2023-02-14T16:44:57.975Z,15.50
2023-02-14T16:47:27.761Z,15.40
2023-02-14T16:49:54.695Z,15.10
2023-02-14T16:52:26.925Z,15.30
2023-02-14T16:54:54.411Z,14.60
2023-02-14T16:57:28.095Z,14.40
2023-02-14T16:59:56.627Z,15.10
2023-02-14T17:02:26.316Z,14.00
2023-02-14T17:04:53.617Z,13.70
2023-02-14T17:07:21.675Z,13.50
2023-02-14T17:09:56.567Z,13.30
2023-02-14T17:12:29.686Z,13.20
2023-02-14T17:15:08.471Z,13.00
2023-02-14T17:17:37.654Z,12.80
2023-02-14T17:20:08.405Z,12.60
2023-02-14T17:22:37.712Z,12.50
2023-02-14T17:25:06.168Z,13.00
2023-02-14T17:27:33.255Z,12.10
2023-02-14T17:30:00.327Z,11.90
2023-02-14T17:32:27.578Z,12.00
2023-02-14T17:34:54.673Z,11.70
2023-02-14T17:37:21.745Z,11.50
2023-02-14T17:39:48.784Z,11.40
2023-02-14T17:42:15.868Z,11.30
2023-02-14T17:44:42.914Z,12.40
2023-02-14T17:47:09.991Z,11.10
2023-02-14T17:49:37.060Z,11.00
2023-02-14T17:52:04.412Z,11.00
2023-02-14T17:54:38.247Z,10.80
2023-02-14T17:57:05.626Z,10.80
2023-02-14T17:59:36.566Z,10.70
2023-02-14T18:02:04.588Z,10.60
2023-02-14T18:04:33.427Z,10.50
2023-02-14T18:07:00.393Z,10.40
2023-02-14T18:09:27.851Z,10.30
2023-02-14T18:11:55.521Z,10.30
2023-02-14T18:14:22.705Z,10.20
2023-02-14T18:16:49.645Z,10.10
2023-02-14T18:19:16.998Z,10.00
2023-02-14T18:21:45.498Z,11.30
2023-02-14T18:24:13.249Z,10.90
2023-02-14T18:26:42.110Z,9.70
2023-02-14T18:29:09.960Z,9.60
2023-02-14T18:31:40.237Z,10.40
2023-02-14T18:34:07.912Z,10.50
2023-02-14T18:36:40.540Z,9.30
2023-02-14T18:39:09.149Z,9.30
2023-02-14T18:41:36.810Z,9.10
2023-02-14T18:44:04.940Z,9.00
2023-02-14T18:46:35.728Z,9.00
2023-02-14T18:49:07.150Z,8.90
2023-02-14T18:51:39.090Z,8.80
2023-02-14T18:54:06.957Z,8.70
2023-02-14T18:56:37.674Z,8.60
2023-02-14T18:59:08.919Z,8.50
2023-02-14T19:01:41.941Z,8.50
2023-02-14T19:04:12.319Z,8.40
2023-02-14T19:06:41.842Z,8.30
2023-02-14T19:09:14.005Z,8.20
2023-02-14T19:11:41.859Z,8.10
2023-02-14T19:14:13.442Z,9.90
2023-02-14T19:16:53.469Z,8.00
2023-02-14T19:19:20.744Z,9.10
2023-02-14T19:21:47.603Z,7.80
2023-02-14T19:24:17.809Z,9.60
2023-02-14T19:26:45.942Z,7.70
2023-02-14T19:29:17.370Z,7.60
2023-02-14T19:31:51.891Z,7.60
2023-02-14T19:34:22.104Z,7.70
2023-02-14T19:36:53.225Z,7.50
2023-02-14T19:39:23.035Z,7.50
2023-02-14T19:41:51.257Z,7.40
2023-02-14T19:44:19.072Z,7.40
2023-02-14T19:46:47.703Z,7.30
2023-02-14T19:49:20.558Z,8.40
2023-02-14T19:51:51.260Z,7.90
2023-02-14T19:54:18.834Z,7.20
2023-02-14T19:56:48.237Z,7.20
2023-02-14T19:59:20.226Z,9.10
2023-02-14T20:01:53.967Z,7.10
2023-02-14T20:04:28.364Z,7.00
2023-02-14T20:06:56.144Z,7.00
2023-02-14T20:09:24.099Z,7.00
2023-02-14T20:11:56.117Z,6.90
2023-02-14T20:14:50.887Z,6.90
2023-02-14T20:17:19.570Z,6.90
2023-02-14T20:19:46.659Z,6.80
2023-02-14T20:22:14.528Z,6.80
2023-02-14T20:24:41.588Z,6.80
2023-02-14T20:27:08.586Z,6.70
2023-02-14T20:29:38.931Z,6.60
2023-02-14T20:32:06.215Z,6.60
2023-02-14T20:34:33.272Z,6.50
2023-02-14T20:37:00.303Z,6.40
2023-02-14T20:39:34.910Z,6.40
2023-02-14T20:42:02.245Z,6.40
2023-02-14T20:44:29.831Z,6.30
2023-02-14T20:46:57.695Z,6.30
2023-02-14T20:49:27.243Z,6.20
2023-02-14T20:51:55.965Z,6.20
2023-02-14T20:54:26.525Z,6.20
2023-02-14T20:56:53.821Z,7.10
2023-02-14T20:59:27.358Z,6.10
2023-02-14T21:01:56.989Z,6.10
2023-02-14T21:04:25.515Z,6.00
2023-02-14T21:06:52.675Z,6.20
2023-02-14T21:09:20.737Z,6.00
2023-02-14T21:11:47.834Z,5.90
2023-02-14T21:14:18.101Z,6.60
2023-02-14T21:16:45.285Z,5.80
2023-02-14T21:19:12.309Z,5.80
2023-02-14T21:21:39.620Z,5.70
2023-02-14T21:24:16.215Z,5.60
2023-02-14T21:26:45.012Z,5.60
2023-02-14T21:29:12.557Z,5.50
2023-02-14T21:31:40.594Z,5.50
2023-02-14T21:34:08.127Z,5.40
2023-02-14T21:36:35.965Z,5.40
2023-02-14T21:39:04.399Z,5.30
2023-02-14T21:41:35.617Z,5.30
2023-02-14T21:44:04.343Z,5.60
2023-02-14T21:46:37.040Z,6.10
2023-02-14T21:49:24.825Z,5.10
2023-02-14T21:51:51.881Z,5.00
2023-02-14T21:54:18.961Z,5.10
2023-02-14T21:56:46.186Z,5.40
2023-02-14T21:59:13.825Z,4.90
2023-02-14T22:01:43.279Z,4.80
2023-02-14T22:04:12.726Z,4.80
2023-02-14T22:06:42.079Z,4.80
2023-02-14T22:09:13.501Z,4.80
2023-02-14T22:11:41.283Z,4.80
2023-02-14T22:14:08.576Z,4.70
2023-02-14T22:16:36.894Z,4.70
2023-02-14T22:19:06.121Z,4.70
2023-02-14T22:21:33.804Z,4.70
2023-02-14T22:24:01.858Z,4.60
2023-02-14T22:26:38.729Z,4.60
2023-02-14T22:29:08.763Z,4.60
2023-02-14T22:31:40.392Z,4.60
2023-02-14T22:34:10.326Z,4.50
2023-02-14T22:36:37.472Z,4.50
2023-02-14T22:39:05.810Z,4.50
2023-02-14T22:41:37.648Z,4.50
2023-02-14T22:44:06.201Z,6.20
2023-02-14T22:46:36.715Z,4.50
2023-02-14T22:49:06.045Z,4.50
2023-02-14T22:51:39.384Z,4.50
2023-02-14T22:54:14.572Z,4.50
2023-02-14T22:56:49.300Z,4.50
2023-02-14T22:59:23.776Z,4.50
2023-02-14T23:01:52.795Z,4.50
2023-02-14T23:04:22.640Z,4.50
2023-02-14T23:06:51.268Z,4.60
2023-02-14T23:09:19.602Z,4.50
2023-02-14T23:11:48.036Z,4.40
2023-02-14T23:14:36.560Z,4.40
2023-02-14T23:17:23.802Z,4.40
2023-02-14T23:20:10.621Z,4.40
2023-02-14T23:22:40.923Z,4.40
2023-02-14T23:25:11.879Z,4.40
2023-02-14T23:27:45.613Z,4.40
2023-02-14T23:30:17.187Z,4.40
2023-02-14T23:32:44.844Z,4.50
2023-02-14T23:35:14.632Z,4.40
2023-02-14T23:37:41.868Z,4.50
2023-02-14T23:40:12.131Z,5.30
2023-02-14T23:42:39.273Z,2.40
2023-02-14T23:45:25.883Z,6.30
2023-02-14T23:47:52.878Z,4.40
2023-02-14T23:50:19.818Z,4.40
2023-02-14T23:52:49.741Z,4.40
2023-02-14T23:55:17.278Z,4.90
2023-02-14T23:57:44.356Z,4.40
